sensor_id;sensor_type;location;lat;lon;timestamp;P1;durP1;ratioP1;P2;durP2;ratioP2
22138;SDS011;25815;52.582;13.408;2023-02-28T00:00:01;7.43;;;3.38;;
22138;SDS011;25815;52.582;13.408;2023-02-28T00:02:34;7.07;;;2.90;;
22138;SDS011;25815;52.582;13.408;2023-02-28T00:05:00;7.03;;;3.45;;
22138;SDS011;25815;52.582;13.408;2023-02-28T00:07:26;6.10;;;3.10;;
22138;SDS011;25815;52.582;13.408;2023-02-28T00:09:53;5.35;;;3.42;;
22138;SDS011;25815;52.582;13.408;2023-02-28T00:12:18;7.57;;;3.50;;
22138;SDS011;25815;52.582;13.408;2023-02-28T00:14:44;4.85;;;2.97;;
22138;SDS011;25815;52.582;13.408;2023-02-28T00:17:10;7.32;;;3.35;;
22138;SDS011;25815;52.582;13.408;2023-02-28T00:19:36;5.38;;;2.78;;
22138;SDS011;25815;52.582;13.408;2023-02-28T00:22:02;6.45;;;3.03;;
22138;SDS011;25815;52.582;13.408;2023-02-28T00:24:28;7.00;;;3.30;;
22138;SDS011;25815;52.582;13.408;2023-02-28T00:26:54;7.72;;;3.10;;
22138;SDS011;25815;52.582;13.408;2023-02-28T00:29:20;6.28;;;3.17;;
22138;SDS011;25815;52.582;13.408;2023-02-28T00:31:46;6.22;;;3.38;;
22138;SDS011;25815;52.582;13.408;2023-02-28T00:34:12;6.22;;;3.15;;
22138;SDS011;25815;52.582;13.408;2023-02-28T00:36:38;6.07;;;3.25;;
22138;SDS011;25815;52.582;13.408;2023-02-28T00:39:05;5.32;;;2.83;;
22138;SDS011;25815;52.582;13.408;2023-02-28T00:41:31;5.85;;;3.33;;
22138;SDS011;25815;52.582;13.408;2023-02-28T00:43:57;5.55;;;3.03;;
22138;SDS011;25815;52.582;13.408;2023-02-28T00:46:23;7.00;;;2.83;;
22138;SDS011;25815;52.582;13.408;2023-02-28T00:48:49;5.88;;;2.90;;
22138;SDS011;25815;52.582;13.408;2023-02-28T00:51:15;7.38;;;2.83;;
22138;SDS011;25815;52.582;13.408;2023-02-28T00:53:41;6.00;;;3.05;;
22138;SDS011;25815;52.582;13.408;2023-02-28T00:56:07;5.38;;;2.80;;
22138;SDS011;25815;52.582;13.408;2023-02-28T00:58:33;6.18;;;2.72;;
22138;SDS011;25815;52.582;13.408;2023-02-28T01:00:58;7.22;;;3.17;;
22138;SDS011;25815;52.582;13.408;2023-02-28T01:03:24;6.13;;;2.60;;
22138;SDS011;25815;52.582;13.408;2023-02-28T01:05:51;5.07;;;3.22;;
22138;SDS011;25815;52.582;13.408;2023-02-28T01:08:18;5.25;;;2.55;;
22138;SDS011;25815;52.582;13.408;2023-02-28T01:10:44;6.47;;;2.92;;
22138;SDS011;25815;52.582;13.408;2023-02-28T01:13:10;5.35;;;3.05;;
22138;SDS011;25815;52.582;13.408;2023-02-28T01:15:36;5.38;;;2.40;;
22138;SDS011;25815;52.582;13.408;2023-02-28T01:18:03;6.80;;;2.90;;
22138;SDS011;25815;52.582;13.408;2023-02-28T01:20:29;4.57;;;2.40;;
22138;SDS011;25815;52.582;13.408;2023-02-28T01:22:55;7.18;;;2.75;;
22138;SDS011;25815;52.582;13.408;2023-02-28T01:25:21;4.32;;;2.70;;
22138;SDS011;25815;52.582;13.408;2023-02-28T01:27:47;5.47;;;2.53;;
22138;SDS011;25815;52.582;13.408;2023-02-28T01:30:13;5.10;;;2.80;;
22138;SDS011;25815;52.582;13.408;2023-02-28T01:32:39;5.45;;;2.60;;
22138;SDS011;25815;52.582;13.408;2023-02-28T01:35:05;6.45;;;2.55;;
22138;SDS011;25815;52.582;13.408;2023-02-28T01:37:31;6.70;;;2.80;;
22138;SDS011;25815;52.582;13.408;2023-02-28T01:39:57;6.10;;;2.45;;
22138;SDS011;25815;52.582;13.408;2023-02-28T01:42:23;6.03;;;3.13;;
22138;SDS011;25815;52.582;13.408;2023-02-28T01:47:24;7.15;;;2.70;;
22138;SDS011;25815;52.582;13.408;2023-02-28T01:49:51;4.13;;;2.55;;
22138;SDS011;25815;52.582;13.408;2023-02-28T01:52:17;5.00;;;2.50;;
22138;SDS011;25815;52.582;13.408;2023-02-28T01:55:02;6.25;;;3.10;;
22138;SDS011;25815;52.582;13.408;2023-02-28T01:57:34;5.63;;;3.05;;
22138;SDS011;25815;52.582;13.408;2023-02-28T02:00:12;9.02;;;2.80;;
22138;SDS011;25815;52.582;13.408;2023-02-28T02:02:41;6.75;;;3.13;;
22138;SDS011;25815;52.582;13.408;2023-02-28T02:05:29;5.60;;;3.33;;
22138;SDS011;25815;52.582;13.408;2023-02-28T02:07:56;10.57;;;3.40;;
22138;SDS011;25815;52.582;13.408;2023-02-28T02:15:39;6.97;;;3.42;;
22138;SDS011;25815;52.582;13.408;2023-02-28T02:18:40;7.35;;;3.40;;
22138;SDS011;25815;52.582;13.408;2023-02-28T02:26:32;6.63;;;3.38;;
22138;SDS011;25815;52.582;13.408;2023-02-28T02:31:50;4.82;;;2.95;;
22138;SDS011;25815;52.582;13.408;2023-02-28T02:34:38;7.57;;;3.42;;
22138;SDS011;25815;52.582;13.408;2023-02-28T02:37:25;6.80;;;3.58;;
22138;SDS011;25815;52.582;13.408;2023-02-28T02:39:57;6.30;;;3.08;;
22138;SDS011;25815;52.582;13.408;2023-02-28T02:42:31;8.07;;;3.72;;
22138;SDS011;25815;52.582;13.408;2023-02-28T02:45:01;6.63;;;3.70;;
22138;SDS011;25815;52.582;13.408;2023-02-28T02:47:30;7.40;;;4.03;;
22138;SDS011;25815;52.582;13.408;2023-02-28T02:49:58;7.03;;;3.40;;
22138;SDS011;25815;52.582;13.408;2023-02-28T02:52:30;7.28;;;3.95;;
22138;SDS011;25815;52.582;13.408;2023-02-28T02:54:58;9.40;;;4.00;;
22138;SDS011;25815;52.582;13.408;2023-02-28T02:57:26;7.55;;;3.65;;
22138;SDS011;25815;52.582;13.408;2023-02-28T02:59:55;8.80;;;4.22;;
22138;SDS011;25815;52.582;13.408;2023-02-28T03:02:21;7.68;;;3.95;;
22138;SDS011;25815;52.582;13.408;2023-02-28T03:04:56;9.40;;;4.22;;
22138;SDS011;25815;52.582;13.408;2023-02-28T03:07:25;10.10;;;4.20;;
22138;SDS011;25815;52.582;13.408;2023-02-28T03:09:52;11.18;;;4.72;;
22138;SDS011;25815;52.582;13.408;2023-02-28T03:12:19;8.77;;;4.68;;
22138;SDS011;25815;52.582;13.408;2023-02-28T03:14:55;11.38;;;4.75;;
22138;SDS011;25815;52.582;13.408;2023-02-28T03:17:41;8.60;;;4.38;;
22138;SDS011;25815;52.582;13.408;2023-02-28T03:23:01;8.98;;;4.25;;
22138;SDS011;25815;52.582;13.408;2023-02-28T03:25:31;11.73;;;4.57;;
22138;SDS011;25815;52.582;13.408;2023-02-28T03:28:05;8.90;;;4.50;;
22138;SDS011;25815;52.582;13.408;2023-02-28T03:33:01;8.65;;;4.30;;
22138;SDS011;25815;52.582;13.408;2023-02-28T03:35:31;9.27;;;4.38;;
22138;SDS011;25815;52.582;13.408;2023-02-28T03:38:00;10.45;;;4.82;;
22138;SDS011;25815;52.582;13.408;2023-02-28T03:40:27;8.65;;;4.25;;
22138;SDS011;25815;52.582;13.408;2023-02-28T03:42:57;10.00;;;4.68;;
22138;SDS011;25815;52.582;13.408;2023-02-28T03:45:26;11.55;;;4.75;;
22138;SDS011;25815;52.582;13.408;2023-02-28T03:47:53;9.60;;;4.60;;
22138;SDS011;25815;52.582;13.408;2023-02-28T03:50:53;9.88;;;5.07;;
22138;SDS011;25815;52.582;13.408;2023-02-28T03:53:14;11.55;;;4.70;;
22138;SDS011;25815;52.582;13.408;2023-02-28T03:55:48;11.40;;;5.15;;
22138;SDS011;25815;52.582;13.408;2023-02-28T03:58:24;11.15;;;5.10;;
22138;SDS011;25815;52.582;13.408;2023-02-28T04:00:57;11.15;;;5.40;;
22138;SDS011;25815;52.582;13.408;2023-02-28T04:03:23;12.45;;;5.20;;
22138;SDS011;25815;52.582;13.408;2023-02-28T04:05:53;11.90;;;5.30;;
22138;SDS011;25815;52.582;13.408;2023-02-28T04:08:20;12.00;;;5.30;;
22138;SDS011;25815;52.582;13.408;2023-02-28T04:10:48;12.27;;;5.18;;
22138;SDS011;25815;52.582;13.408;2023-02-28T04:15:41;11.68;;;5.18;;
22138;SDS011;25815;52.582;13.408;2023-02-28T04:18:08;14.02;;;5.90;;
22138;SDS011;25815;52.582;13.408;2023-02-28T04:20:33;11.05;;;5.93;;
22138;SDS011;25815;52.582;13.408;2023-02-28T04:22:59;12.38;;;5.63;;
22138;SDS011;25815;52.582;13.408;2023-02-28T04:25:25;12.30;;;5.53;;
22138;SDS011;25815;52.582;13.408;2023-02-28T04:27:51;12.65;;;5.03;;
22138;SDS011;25815;52.582;13.408;2023-02-28T04:30:17;14.50;;;5.80;;
22138;SDS011;25815;52.582;13.408;2023-02-28T04:32:43;10.50;;;5.15;;
22138;SDS011;25815;52.582;13.408;2023-02-28T04:35:09;14.27;;;5.60;;
22138;SDS011;25815;52.582;13.408;2023-02-28T04:37:35;12.30;;;5.22;;
22138;SDS011;25815;52.582;13.408;2023-02-28T04:40:02;13.25;;;6.15;;
22138;SDS011;25815;52.582;13.408;2023-02-28T04:42:28;16.08;;;6.00;;
22138;SDS011;25815;52.582;13.408;2023-02-28T04:45:00;14.20;;;5.50;;
22138;SDS011;25815;52.582;13.408;2023-02-28T04:47:26;13.73;;;5.88;;
22138;SDS011;25815;52.582;13.408;2023-02-28T04:49:52;13.70;;;5.72;;
22138;SDS011;25815;52.582;13.408;2023-02-28T04:52:18;17.00;;;5.82;;
22138;SDS011;25815;52.582;13.408;2023-02-28T04:54:44;13.73;;;6.00;;
22138;SDS011;25815;52.582;13.408;2023-02-28T04:57:10;12.20;;;5.95;;
22138;SDS011;25815;52.582;13.408;2023-02-28T04:59:36;16.23;;;6.00;;
22138;SDS011;25815;52.582;13.408;2023-02-28T05:02:02;12.60;;;5.70;;
22138;SDS011;25815;52.582;13.408;2023-02-28T05:04:31;13.07;;;5.40;;
22138;SDS011;25815;52.582;13.408;2023-02-28T05:06:59;11.68;;;4.93;;
22138;SDS011;25815;52.582;13.408;2023-02-28T05:09:24;12.75;;;5.47;;
22138;SDS011;25815;52.582;13.408;2023-02-28T05:11:50;11.20;;;5.25;;
22138;SDS011;25815;52.582;13.408;2023-02-28T05:14:16;13.25;;;5.50;;
22138;SDS011;25815;52.582;13.408;2023-02-28T05:16:42;10.77;;;4.88;;
22138;SDS011;25815;52.582;13.408;2023-02-28T05:19:08;12.38;;;5.15;;
22138;SDS011;25815;52.582;13.408;2023-02-28T05:21:38;11.45;;;5.38;;
22138;SDS011;25815;52.582;13.408;2023-02-28T05:24:05;13.35;;;5.45;;
22138;SDS011;25815;52.582;13.408;2023-02-28T05:26:35;13.02;;;5.68;;
22138;SDS011;25815;52.582;13.408;2023-02-28T05:29:01;10.63;;;5.80;;
22138;SDS011;25815;52.582;13.408;2023-02-28T05:31:26;13.00;;;5.57;;
22138;SDS011;25815;52.582;13.408;2023-02-28T05:33:52;10.15;;;5.47;;
22138;SDS011;25815;52.582;13.408;2023-02-28T05:36:19;12.23;;;5.78;;
22138;SDS011;25815;52.582;13.408;2023-02-28T05:38:48;12.10;;;5.30;;
22138;SDS011;25815;52.582;13.408;2023-02-28T05:41:14;11.85;;;5.57;;
22138;SDS011;25815;52.582;13.408;2023-02-28T05:43:40;12.13;;;5.22;;
22138;SDS011;25815;52.582;13.408;2023-02-28T05:46:07;12.75;;;5.28;;
22138;SDS011;25815;52.582;13.408;2023-02-28T05:48:34;10.35;;;5.50;;
22138;SDS011;25815;52.582;13.408;2023-02-28T05:51:00;10.20;;;5.30;;
22138;SDS011;25815;52.582;13.408;2023-02-28T05:53:27;9.20;;;5.07;;
22138;SDS011;25815;52.582;13.408;2023-02-28T05:55:53;12.38;;;5.75;;
22138;SDS011;25815;52.582;13.408;2023-02-28T05:58:20;10.02;;;5.57;;
22138;SDS011;25815;52.582;13.408;2023-02-28T06:00:46;12.75;;;5.15;;
22138;SDS011;25815;52.582;13.408;2023-02-28T06:03:12;11.63;;;5.28;;
22138;SDS011;25815;52.582;13.408;2023-02-28T06:05:38;11.23;;;5.32;;
22138;SDS011;25815;52.582;13.408;2023-02-28T06:08:04;13.00;;;6.15;;
22138;SDS011;25815;52.582;13.408;2023-02-28T06:10:32;11.32;;;5.82;;
22138;SDS011;25815;52.582;13.408;2023-02-28T06:12:59;13.75;;;5.78;;
22138;SDS011;25815;52.582;13.408;2023-02-28T06:15:27;10.73;;;6.00;;
22138;SDS011;25815;52.582;13.408;2023-02-28T06:17:53;11.02;;;6.15;;
22138;SDS011;25815;52.582;13.408;2023-02-28T06:20:21;13.23;;;5.63;;
22138;SDS011;25815;52.582;13.408;2023-02-28T06:22:47;11.15;;;5.68;;
22138;SDS011;25815;52.582;13.408;2023-02-28T06:25:15;13.07;;;5.90;;
22138;SDS011;25815;52.582;13.408;2023-02-28T06:27:41;12.75;;;6.05;;
22138;SDS011;25815;52.582;13.408;2023-02-28T06:30:08;12.65;;;6.95;;
22138;SDS011;25815;52.582;13.408;2023-02-28T06:32:34;10.70;;;6.63;;
22138;SDS011;25815;52.582;13.408;2023-02-28T06:35:00;14.23;;;7.07;;
22138;SDS011;25815;52.582;13.408;2023-02-28T06:37:26;15.02;;;7.30;;
22138;SDS011;25815;52.582;13.408;2023-02-28T06:39:53;16.55;;;7.63;;
22138;SDS011;25815;52.582;13.408;2023-02-28T06:42:21;15.43;;;7.90;;
22138;SDS011;25815;52.582;13.408;2023-02-28T06:44:49;20.77;;;8.13;;
22138;SDS011;25815;52.582;13.408;2023-02-28T06:47:15;16.13;;;7.95;;
22138;SDS011;25815;52.582;13.408;2023-02-28T06:49:41;18.27;;;8.40;;
22138;SDS011;25815;52.582;13.408;2023-02-28T06:52:07;12.90;;;7.00;;
22138;SDS011;25815;52.582;13.408;2023-02-28T06:54:35;13.57;;;7.45;;
22138;SDS011;25815;52.582;13.408;2023-02-28T06:57:02;14.85;;;7.35;;
22138;SDS011;25815;52.582;13.408;2023-02-28T06:59:28;13.73;;;6.88;;
22138;SDS011;25815;52.582;13.408;2023-02-28T07:01:54;13.48;;;7.13;;
22138;SDS011;25815;52.582;13.408;2023-02-28T07:04:20;15.43;;;7.13;;
22138;SDS011;25815;52.582;13.408;2023-02-28T07:06:46;12.88;;;7.10;;
22138;SDS011;25815;52.582;13.408;2023-02-28T07:09:12;14.65;;;7.35;;
22138;SDS011;25815;52.582;13.408;2023-02-28T07:11:39;12.45;;;7.38;;
22138;SDS011;25815;52.582;13.408;2023-02-28T07:14:05;16.30;;;8.00;;
22138;SDS011;25815;52.582;13.408;2023-02-28T07:16:31;16.75;;;7.43;;
22138;SDS011;25815;52.582;13.408;2023-02-28T07:18:57;13.25;;;7.15;;
22138;SDS011;25815;52.582;13.408;2023-02-28T07:21:23;17.30;;;6.75;;
22138;SDS011;25815;52.582;13.408;2023-02-28T07:23:49;12.98;;;7.00;;
22138;SDS011;25815;52.582;13.408;2023-02-28T07:26:16;15.10;;;7.22;;
22138;SDS011;25815;52.582;13.408;2023-02-28T07:28:43;12.88;;;6.70;;
22138;SDS011;25815;52.582;13.408;2023-02-28T07:31:09;13.77;;;6.88;;
22138;SDS011;25815;52.582;13.408;2023-02-28T07:33:35;14.00;;;6.93;;
22138;SDS011;25815;52.582;13.408;2023-02-28T07:36:02;16.67;;;7.10;;
22138;SDS011;25815;52.582;13.408;2023-02-28T07:38:29;11.75;;;6.47;;
22138;SDS011;25815;52.582;13.408;2023-02-28T07:40:55;13.40;;;6.65;;
22138;SDS011;25815;52.582;13.408;2023-02-28T07:43:20;13.63;;;6.80;;
22138;SDS011;25815;52.582;13.408;2023-02-28T07:45:46;15.13;;;6.65;;
22138;SDS011;25815;52.582;13.408;2023-02-28T07:48:12;12.13;;;6.82;;
22138;SDS011;25815;52.582;13.408;2023-02-28T07:50:38;17.35;;;8.18;;
22138;SDS011;25815;52.582;13.408;2023-02-28T07:53:04;12.20;;;6.82;;
22138;SDS011;25815;52.582;13.408;2023-02-28T07:55:30;15.10;;;7.40;;
22138;SDS011;25815;52.582;13.408;2023-02-28T07:57:56;16.45;;;7.25;;
22138;SDS011;25815;52.582;13.408;2023-02-28T08:00:22;16.67;;;6.85;;
22138;SDS011;25815;52.582;13.408;2023-02-28T08:02:49;16.45;;;6.85;;
22138;SDS011;25815;52.582;13.408;2023-02-28T08:05:15;14.43;;;7.22;;
22138;SDS011;25815;52.582;13.408;2023-02-28T08:07:41;11.65;;;6.78;;
22138;SDS011;25815;52.582;13.408;2023-02-28T08:10:07;11.75;;;6.75;;
22138;SDS011;25815;52.582;13.408;2023-02-28T08:12:34;14.68;;;6.55;;
22138;SDS011;25815;52.582;13.408;2023-02-28T08:15:00;11.95;;;6.93;;
22138;SDS011;25815;52.582;13.408;2023-02-28T08:17:26;13.13;;;7.35;;
22138;SDS011;25815;52.582;13.408;2023-02-28T08:19:52;11.07;;;6.50;;
22138;SDS011;25815;52.582;13.408;2023-02-28T08:22:18;12.45;;;6.78;;
22138;SDS011;25815;52.582;13.408;2023-02-28T08:24:44;13.10;;;7.28;;
22138;SDS011;25815;52.582;13.408;2023-02-28T08:27:10;13.20;;;7.30;;
22138;SDS011;25815;52.582;13.408;2023-02-28T08:29:37;13.30;;;6.95;;
22138;SDS011;25815;52.582;13.408;2023-02-28T08:32:03;11.98;;;6.57;;
22138;SDS011;25815;52.582;13.408;2023-02-28T08:34:29;12.40;;;5.63;;
22138;SDS011;25815;52.582;13.408;2023-02-28T08:36:55;6.82;;;4.07;;
22138;SDS011;25815;52.582;13.408;2023-02-28T08:39:21;6.43;;;3.97;;
22138;SDS011;25815;52.582;13.408;2023-02-28T08:41:47;6.60;;;3.22;;
22138;SDS011;25815;52.582;13.408;2023-02-28T08:44:13;7.60;;;3.03;;
22138;SDS011;25815;52.582;13.408;2023-02-28T08:46:39;4.40;;;2.80;;
22138;SDS011;25815;52.582;13.408;2023-02-28T08:49:05;8.73;;;3.22;;
22138;SDS011;25815;52.582;13.408;2023-02-28T08:51:32;5.25;;;2.38;;
22138;SDS011;25815;52.582;13.408;2023-02-28T08:53:58;5.63;;;2.25;;
22138;SDS011;25815;52.582;13.408;2023-02-28T08:56:25;4.75;;;2.13;;
22138;SDS011;25815;52.582;13.408;2023-02-28T08:58:51;4.88;;;2.17;;
22138;SDS011;25815;52.582;13.408;2023-02-28T09:01:21;5.47;;;2.10;;
22138;SDS011;25815;52.582;13.408;2023-02-28T09:03:47;7.35;;;2.67;;
22138;SDS011;25815;52.582;13.408;2023-02-28T09:06:14;8.63;;;2.13;;
22138;SDS011;25815;52.582;13.408;2023-02-28T09:08:40;6.25;;;2.42;;
22138;SDS011;25815;52.582;13.408;2023-02-28T09:11:06;5.70;;;2.03;;
22138;SDS011;25815;52.582;13.408;2023-02-28T09:13:32;3.35;;;1.92;;
22138;SDS011;25815;52.582;13.408;2023-02-28T09:15:59;4.20;;;2.25;;
22138;SDS011;25815;52.582;13.408;2023-02-28T09:18:25;4.47;;;2.30;;
22138;SDS011;25815;52.582;13.408;2023-02-28T09:20:51;3.88;;;2.50;;
22138;SDS011;25815;52.582;13.408;2023-02-28T09:23:18;14.25;;;2.83;;
22138;SDS011;25815;52.582;13.408;2023-02-28T09:25:47;6.70;;;1.90;;
22138;SDS011;25815;52.582;13.408;2023-02-28T09:28:14;5.18;;;2.00;;
22138;SDS011;25815;52.582;13.408;2023-02-28T09:30:40;4.60;;;1.80;;
22138;SDS011;25815;52.582;13.408;2023-02-28T09:33:06;6.50;;;2.10;;
22138;SDS011;25815;52.582;13.408;2023-02-28T09:35:32;2.35;;;1.00;;
22138;SDS011;25815;52.582;13.408;2023-02-28T09:37:58;2.70;;;1.10;;
22138;SDS011;25815;52.582;13.408;2023-02-28T09:40:25;6.20;;;1.80;;
22138;SDS011;25815;52.582;13.408;2023-02-28T09:42:52;4.40;;;1.55;;
22138;SDS011;25815;52.582;13.408;2023-02-28T09:45:23;2.88;;;1.17;;
22138;SDS011;25815;52.582;13.408;2023-02-28T09:47:50;3.45;;;1.35;;
22138;SDS011;25815;52.582;13.408;2023-02-28T09:50:21;3.45;;;1.65;;
22138;SDS011;25815;52.582;13.408;2023-02-28T09:52:49;7.00;;;1.60;;
22138;SDS011;25815;52.582;13.408;2023-02-28T09:57:41;2.97;;;1.20;;
22138;SDS011;25815;52.582;13.408;2023-02-28T10:02:46;2.33;;;1.23;;
22138;SDS011;25815;52.582;13.408;2023-02-28T10:05:17;4.35;;;1.40;;
22138;SDS011;25815;52.582;13.408;2023-02-28T10:12:51;7.18;;;1.25;;
22138;SDS011;25815;52.582;13.408;2023-02-28T10:15:18;6.82;;;1.33;;
22138;SDS011;25815;52.582;13.408;2023-02-28T10:17:45;3.63;;;1.23;;
22138;SDS011;25815;52.582;13.408;2023-02-28T10:20:17;1.95;;;0.80;;
22138;SDS011;25815;52.582;13.408;2023-02-28T10:22:58;3.35;;;0.90;;
22138;SDS011;25815;52.582;13.408;2023-02-28T10:25:27;4.20;;;1.20;;
22138;SDS011;25815;52.582;13.408;2023-02-28T10:27:54;6.82;;;1.08;;
22138;SDS011;25815;52.582;13.408;2023-02-28T10:30:22;2.53;;;0.82;;
22138;SDS011;25815;52.582;13.408;2023-02-28T10:32:51;3.08;;;0.98;;
22138;SDS011;25815;52.582;13.408;2023-02-28T10:35:21;3.47;;;1.20;;
22138;SDS011;25815;52.582;13.408;2023-02-28T10:37:48;2.28;;;1.10;;
22138;SDS011;25815;52.582;13.408;2023-02-28T10:42:57;3.38;;;1.05;;
22138;SDS011;25815;52.582;13.408;2023-02-28T10:45:23;6.68;;;1.23;;
22138;SDS011;25815;52.582;13.408;2023-02-28T10:47:59;3.20;;;1.35;;
22138;SDS011;25815;52.582;13.408;2023-02-28T10:53:14;6.45;;;1.75;;
22138;SDS011;25815;52.582;13.408;2023-02-28T10:55:40;3.30;;;1.02;;
22138;SDS011;25815;52.582;13.408;2023-02-28T10:58:26;5.57;;;1.50;;
22138;SDS011;25815;52.582;13.408;2023-02-28T11:00:52;3.05;;;1.08;;
22138;SDS011;25815;52.582;13.408;2023-02-28T11:03:36;5.13;;;1.10;;
22138;SDS011;25815;52.582;13.408;2023-02-28T11:06:22;2.22;;;1.15;;
22138;SDS011;25815;52.582;13.408;2023-02-28T11:08:52;5.18;;;1.10;;
22138;SDS011;25815;52.582;13.408;2023-02-28T11:11:20;4.50;;;1.23;;
22138;SDS011;25815;52.582;13.408;2023-02-28T11:13:46;2.95;;;1.40;;
22138;SDS011;25815;52.582;13.408;2023-02-28T11:16:13;4.80;;;1.33;;
22138;SDS011;25815;52.582;13.408;2023-02-28T11:21:10;2.05;;;1.13;;
22138;SDS011;25815;52.582;13.408;2023-02-28T11:23:41;2.67;;;1.20;;
22138;SDS011;25815;52.582;13.408;2023-02-28T11:26:08;3.55;;;1.55;;
22138;SDS011;25815;52.582;13.408;2023-02-28T11:28:38;4.72;;;1.40;;
22138;SDS011;25815;52.582;13.408;2023-02-28T11:33:49;1.95;;;0.90;;
22138;SDS011;25815;52.582;13.408;2023-02-28T11:38:42;3.67;;;1.42;;
22138;SDS011;25815;52.582;13.408;2023-02-28T11:51:21;5.35;;;1.65;;
22138;SDS011;25815;52.582;13.408;2023-02-28T11:53:50;4.93;;;1.80;;
22138;SDS011;25815;52.582;13.408;2023-02-28T11:56:33;4.15;;;1.52;;
22138;SDS011;25815;52.582;13.408;2023-02-28T11:59:10;4.72;;;1.70;;
22138;SDS011;25815;52.582;13.408;2023-02-28T12:01:43;3.33;;;1.88;;
22138;SDS011;25815;52.582;13.408;2023-02-28T12:04:25;3.40;;;1.70;;
22138;SDS011;25815;52.582;13.408;2023-02-28T12:09:44;4.40;;;1.88;;
22138;SDS011;25815;52.582;13.408;2023-02-28T12:12:35;3.38;;;1.90;;
22138;SDS011;25815;52.582;13.408;2023-02-28T12:20:02;4.45;;;1.75;;
22138;SDS011;25815;52.582;13.408;2023-02-28T12:25:34;3.70;;;1.83;;
22138;SDS011;25815;52.582;13.408;2023-02-28T12:28:03;3.47;;;1.77;;
22138;SDS011;25815;52.582;13.408;2023-02-28T12:30:33;3.90;;;2.08;;
22138;SDS011;25815;52.582;13.408;2023-02-28T12:33:05;3.90;;;2.00;;
22138;SDS011;25815;52.582;13.408;2023-02-28T12:35:39;2.42;;;1.77;;
22138;SDS011;25815;52.582;13.408;2023-02-28T12:38:17;5.53;;;1.73;;
22138;SDS011;25815;52.582;13.408;2023-02-28T12:40:47;3.78;;;1.90;;
22138;SDS011;25815;52.582;13.408;2023-02-28T12:43:15;4.07;;;1.90;;
22138;SDS011;25815;52.582;13.408;2023-02-28T12:48:09;4.28;;;2.25;;
22138;SDS011;25815;52.582;13.408;2023-02-28T12:50:38;3.40;;;2.17;;
22138;SDS011;25815;52.582;13.408;2023-02-28T12:58:19;4.55;;;1.90;;
22138;SDS011;25815;52.582;13.408;2023-02-28T13:00:52;5.30;;;2.08;;
22138;SDS011;25815;52.582;13.408;2023-02-28T13:08:37;6.68;;;2.10;;
22138;SDS011;25815;52.582;13.408;2023-02-28T13:11:07;5.35;;;2.33;;
22138;SDS011;25815;52.582;13.408;2023-02-28T13:13:33;3.85;;;2.20;;
22138;SDS011;25815;52.582;13.408;2023-02-28T13:16:08;5.18;;;2.40;;
22138;SDS011;25815;52.582;13.408;2023-02-28T13:18:39;3.55;;;1.90;;
22138;SDS011;25815;52.582;13.408;2023-02-28T13:21:06;4.72;;;2.40;;
22138;SDS011;25815;52.582;13.408;2023-02-28T13:26:06;5.10;;;2.33;;
22138;SDS011;25815;52.582;13.408;2023-02-28T13:31:18;4.65;;;2.40;;
22138;SDS011;25815;52.582;13.408;2023-02-28T13:38:41;3.63;;;1.65;;
22138;SDS011;25815;52.582;13.408;2023-02-28T13:46:32;3.72;;;1.70;;
22138;SDS011;25815;52.582;13.408;2023-02-28T13:51:49;5.28;;;2.50;;
22138;SDS011;25815;52.582;13.408;2023-02-28T13:56:48;3.50;;;2.03;;
22138;SDS011;25815;52.582;13.408;2023-02-28T14:01:48;4.18;;;2.15;;
22138;SDS011;25815;52.582;13.408;2023-02-28T14:04:35;3.72;;;2.03;;
22138;SDS011;25815;52.582;13.408;2023-02-28T14:07:05;3.40;;;1.80;;
22138;SDS011;25815;52.582;13.408;2023-02-28T14:09:32;4.85;;;2.03;;
22138;SDS011;25815;52.582;13.408;2023-02-28T14:17:13;4.82;;;2.05;;
22138;SDS011;25815;52.582;13.408;2023-02-28T14:19:39;5.25;;;1.88;;
22138;SDS011;25815;52.582;13.408;2023-02-28T14:29:41;3.35;;;2.17;;
22138;SDS011;25815;52.582;13.408;2023-02-28T14:34:54;6.30;;;2.20;;
22138;SDS011;25815;52.582;13.408;2023-02-28T14:37:25;5.22;;;2.05;;
22138;SDS011;25815;52.582;13.408;2023-02-28T14:39:52;3.40;;;2.40;;
22138;SDS011;25815;52.582;13.408;2023-02-28T14:42:29;4.72;;;2.35;;
22138;SDS011;25815;52.582;13.408;2023-02-28T14:44:56;4.18;;;2.20;;
22138;SDS011;25815;52.582;13.408;2023-02-28T14:47:22;4.25;;;2.05;;
22138;SDS011;25815;52.582;13.408;2023-02-28T14:49:49;3.75;;;2.03;;
22138;SDS011;25815;52.582;13.408;2023-02-28T14:52:17;4.97;;;2.10;;
22138;SDS011;25815;52.582;13.408;2023-02-28T14:54:44;4.03;;;2.03;;
22138;SDS011;25815;52.582;13.408;2023-02-28T15:02:30;3.55;;;2.30;;
22138;SDS011;25815;52.582;13.408;2023-02-28T15:04:58;2.97;;;2.13;;
22138;SDS011;25815;52.582;13.408;2023-02-28T15:07:24;3.47;;;2.05;;
22138;SDS011;25815;52.582;13.408;2023-02-28T15:12:38;6.45;;;2.35;;
22138;SDS011;25815;52.582;13.408;2023-02-28T15:15:05;5.10;;;2.13;;
22138;SDS011;25815;52.582;13.408;2023-02-28T15:17:32;3.60;;;2.40;;
22138;SDS011;25815;52.582;13.408;2023-02-28T15:19:58;5.22;;;2.20;;
22138;SDS011;25815;52.582;13.408;2023-02-28T15:22:33;3.75;;;2.38;;
22138;SDS011;25815;52.582;13.408;2023-02-28T15:25:00;3.63;;;2.20;;
22138;SDS011;25815;52.582;13.408;2023-02-28T15:27:29;3.72;;;2.17;;
22138;SDS011;25815;52.582;13.408;2023-02-28T15:29:58;6.68;;;2.28;;
22138;SDS011;25815;52.582;13.408;2023-02-28T15:34:53;4.18;;;2.20;;
22138;SDS011;25815;52.582;13.408;2023-02-28T15:39:53;4.78;;;2.40;;
22138;SDS011;25815;52.582;13.408;2023-02-28T15:42:21;5.38;;;2.67;;
22138;SDS011;25815;52.582;13.408;2023-02-28T15:44:47;5.78;;;2.65;;
22138;SDS011;25815;52.582;13.408;2023-02-28T15:47:24;7.55;;;2.58;;
22138;SDS011;25815;52.582;13.408;2023-02-28T15:52:18;5.13;;;2.70;;
22138;SDS011;25815;52.582;13.408;2023-02-28T15:54:45;5.57;;;2.67;;
22138;SDS011;25815;52.582;13.408;2023-02-28T15:57:30;5.75;;;2.65;;
22138;SDS011;25815;52.582;13.408;2023-02-28T15:59:57;4.93;;;2.83;;
22138;SDS011;25815;52.582;13.408;2023-02-28T16:02:32;6.30;;;2.50;;
22138;SDS011;25815;52.582;13.408;2023-02-28T16:07:40;5.18;;;3.00;;
22138;SDS011;25815;52.582;13.408;2023-02-28T16:10:08;5.05;;;2.67;;
22138;SDS011;25815;52.582;13.408;2023-02-28T16:12:35;5.18;;;2.55;;
22138;SDS011;25815;52.582;13.408;2023-02-28T16:15:14;8.07;;;2.83;;
22138;SDS011;25815;52.582;13.408;2023-02-28T16:17:42;4.57;;;2.80;;
22138;SDS011;25815;52.582;13.408;2023-02-28T16:20:12;5.03;;;2.50;;
22138;SDS011;25815;52.582;13.408;2023-02-28T16:22:38;6.03;;;3.08;;
22138;SDS011;25815;52.582;13.408;2023-02-28T16:25:04;5.55;;;2.90;;
22138;SDS011;25815;52.582;13.408;2023-02-28T16:27:34;5.47;;;2.47;;
22138;SDS011;25815;52.582;13.408;2023-02-28T16:30:01;6.10;;;2.70;;
22138;SDS011;25815;52.582;13.408;2023-02-28T16:32:27;5.18;;;3.00;;
22138;SDS011;25815;52.582;13.408;2023-02-28T16:34:53;5.15;;;2.90;;
22138;SDS011;25815;52.582;13.408;2023-02-28T16:37:19;7.70;;;3.10;;
22138;SDS011;25815;52.582;13.408;2023-02-28T16:39:45;7.03;;;3.10;;
22138;SDS011;25815;52.582;13.408;2023-02-28T16:42:14;6.78;;;3.47;;
22138;SDS011;25815;52.582;13.408;2023-02-28T16:47:08;7.70;;;3.10;;
22138;SDS011;25815;52.582;13.408;2023-02-28T16:49:34;5.28;;;3.10;;
22138;SDS011;25815;52.582;13.408;2023-02-28T16:52:00;6.05;;;3.20;;
22138;SDS011;25815;52.582;13.408;2023-02-28T16:54:26;5.65;;;3.10;;
22138;SDS011;25815;52.582;13.408;2023-02-28T16:56:52;5.68;;;2.97;;